Time;durP1;ratioP1;P1;durP2;ratioP2;P2;SDS_P1;SDS_P2;PMS_P1;PMS_P2;Temp;Humidity;BMP_temperature;BMP_pressure;BME280_temperature;BME280_humidity;BME280_pressure;Samples;Min_cycle;Max_cycle;Signal;HPM_P1;HPM_P2
2022/12/02 00:01:36;;;;;;;0.20;0.10;;;9.20;99.90;;;;;;21293202;27;20393;-70
2022/12/02 00:11:42;;;;;;;0.20;0.10;;;9.40;99.90;;;;;;21296454;28;20397;-73
2022/12/02 00:21:46;;;;;;;0.20;0.00;;;9.00;99.90;;;;;;21292791;28;20397;-71
2022/12/02 00:31:51;;;;;;;0.20;0.10;;;8.90;99.90;;;;;;21295719;28;20385;-72
2022/12/02 00:41:55;;;;;;;0.20;0.10;;;9.20;99.90;;;;;;21292015;28;20404;-70
2022/12/02 00:52:00;;;;;;;0.20;0.10;;;8.80;99.90;;;;;;21321822;27;20399;-71
2022/12/02 01:02:04;;;;;;;0.20;0.10;;;8.60;99.90;;;;;;21378651;27;20411;-70
2022/12/02 01:12:09;;;;;;;0.20;0.00;;;8.70;99.90;;;;;;21379448;27;20383;-71
2022/12/02 01:22:13;;;;;;;0.20;0.10;;;8.80;99.90;;;;;;21391528;27;20403;-71
2022/12/02 01:32:19;;;;;;;0.20;0.05;;;8.80;99.90;;;;;;21375197;27;20388;-70
2022/12/02 01:42:23;;;;;;;0.20;0.10;;;8.80;99.90;;;;;;21392470;27;20400;-70
2022/12/02 01:52:29;;;;;;;0.20;0.10;;;9.40;99.90;;;;;;21371408;27;20390;-72
2022/12/02 02:02:35;;;;;;;0.20;0.10;;;9.80;99.90;;;;;;21373593;27;20430;-73
2022/12/02 02:12:40;;;;;;;0.20;0.10;;;9.40;99.90;;;;;;21389050;27;20416;-71
2022/12/02 02:22:50;;;;;;;0.20;0.10;;;9.20;99.90;;;;;;21388864;27;20407;-72
2022/12/02 02:32:57;;;;;;;0.20;0.10;;;9.00;99.90;;;;;;21387020;27;20395;-73
2022/12/02 02:43:02;;;;;;;0.20;0.10;;;8.90;99.90;;;;;;21386414;27;20394;-72
2022/12/02 02:53:08;;;;;;;0.20;0.10;;;8.80;99.90;;;;;;21385926;27;20642;-71
2022/12/02 03:03:15;;;;;;;0.20;0.10;;;9.00;99.90;;;;;;21383134;27;20387;-72
2022/12/02 03:13:20;;;;;;;0.20;0.10;;;9.30;99.90;;;;;;21383267;27;20379;-71
2022/12/02 03:23:25;;;;;;;0.20;0.10;;;9.20;99.90;;;;;;21382803;27;20399;-71
2022/12/02 03:33:30;;;;;;;0.20;0.10;;;9.00;99.90;;;;;;21383550;27;20402;-72
2022/12/02 03:43:34;;;;;;;0.20;0.10;;;9.10;99.90;;;;;;21379314;27;20435;-71
2022/12/02 03:53:39;;;;;;;0.20;0.00;;;9.10;99.90;;;;;;21362518;27;20392;-70
2022/12/02 04:03:43;;;;;;;0.20;0.10;;;9.00;99.90;;;;;;21372169;27;20496;-72
2022/12/02 04:13:48;;;;;;;0.20;0.10;;;9.00;99.90;;;;;;21363382;27;20428;-71
2022/12/02 04:23:52;;;;;;;0.20;0.10;;;9.00;99.90;;;;;;21363192;27;20403;-71
2022/12/02 04:33:57;;;;;;;0.20;0.10;;;9.00;99.90;;;;;;21380674;27;20395;-71
2022/12/02 04:44:02;;;;;;;0.20;0.10;;;9.10;99.90;;;;;;21308189;27;20884;-72
2022/12/02 04:54:07;;;;;;;0.20;0.10;;;9.00;99.90;;;;;;21285967;27;20408;-72
2022/12/02 05:04:11;;;;;;;0.20;0.10;;;8.90;99.90;;;;;;21290728;27;20405;-72
2022/12/02 05:14:16;;;;;;;0.20;0.10;;;8.80;99.90;;;;;;21308308;27;20465;-74
2022/12/02 05:24:20;;;;;;;0.20;0.10;;;8.80;99.90;;;;;;21308731;27;20427;-73
2022/12/02 05:34:25;;;;;;;0.20;0.10;;;8.80;99.90;;;;;;21306312;27;20404;-72
2022/12/02 05:44:30;;;;;;;0.20;0.10;;;8.70;99.90;;;;;;21305839;27;20404;-73
2022/12/02 05:54:43;;;;;;;0.20;0.10;;;8.70;99.90;;;;;;21305533;27;20765;-72
2022/12/02 06:04:47;;;;;;;0.20;0.10;;;8.80;99.90;;;;;;21301282;27;20397;-72
2022/12/02 06:14:54;;;;;;;0.20;0.00;;;9.00;99.90;;;;;;21297639;27;20630;-71
2022/12/02 06:25:02;;;;;;;0.20;0.10;;;9.00;99.90;;;;;;21292171;27;20408;-72
2022/12/02 06:35:20;;;;;;;0.20;0.10;;;9.00;99.90;;;;;;21282670;27;20393;-71
2022/12/02 06:45:27;;;;;;;0.20;0.10;;;8.90;99.90;;;;;;21281634;27;20409;-71
2022/12/02 06:55:35;;;;;;;0.20;0.10;;;8.70;99.90;;;;;;21373846;27;20405;-73
2022/12/02 07:05:39;;;;;;;0.20;0.10;;;8.70;99.90;;;;;;21360914;27;20395;-73
2022/12/02 07:15:45;;;;;;;0.20;0.10;;;8.60;99.90;;;;;;21384138;27;20395;-73
2022/12/02 07:25:51;;;;;;;0.20;0.10;;;8.60;99.90;;;;;;21353803;27;20415;-70
2022/12/02 07:35:56;;;;;;;0.20;0.10;;;8.60;99.90;;;;;;21382902;27;20418;-71
2022/12/02 07:46:00;;;;;;;0.20;0.10;;;8.70;99.90;;;;;;21360737;27;20391;-71
2022/12/02 07:56:06;;;;;;;0.20;0.10;;;8.90;99.90;;;;;;21374948;27;20432;-72
2022/12/02 08:06:12;;;;;;;0.20;0.10;;;8.80;99.90;;;;;;21355269;27;20417;-73
2022/12/02 08:16:17;;;;;;;0.20;0.10;;;8.80;99.90;;;;;;21369298;27;20395;-71
2022/12/02 08:26:21;;;;;;;0.20;0.10;;;9.00;99.90;;;;;;21385661;27;20779;-72
2022/12/02 08:36:26;;;;;;;0.20;0.10;;;9.00;99.90;;;;;;21377564;27;20445;-71
2022/12/02 08:46:31;;;;;;;0.20;0.10;;;9.20;99.90;;;;;;21376532;27;20403;-73
2022/12/02 08:56:37;;;;;;;0.20;0.10;;;9.20;99.90;;;;;;21394391;27;20395;-72
2022/12/02 09:06:41;;;;;;;0.20;0.10;;;9.60;99.90;;;;;;21394946;27;20430;-73
2022/12/02 09:16:47;;;;;;;0.20;0.10;;;9.80;99.90;;;;;;21372066;27;20399;-70
2022/12/02 09:26:50;;;;;;;0.20;0.10;;;9.70;99.90;;;;;;21373162;27;20413;-69
2022/12/02 09:36:55;;;;;;;0.20;0.10;;;10.40;99.90;;;;;;21381425;27;20405;-69
2022/12/02 09:46:59;;;;;;;0.20;0.07;;;10.70;99.90;;;;;;21227791;27;20413;-70
2022/12/02 09:57:09;;;;;;;0.20;0.10;;;11.40;99.90;;;;;;21265234;27;20382;-69
2022/12/02 10:07:13;;;;;;;0.20;0.10;;;11.30;99.90;;;;;;21273842;27;20408;-70
2022/12/02 10:17:21;;;;;;;0.20;0.10;;;11.50;99.90;;;;;;21379426;27;20724;-70
2022/12/02 10:27:26;;;;;;;0.20;0.10;;;11.70;99.90;;;;;;21367472;27;20399;-70
2022/12/02 10:37:33;;;;;;;0.20;0.10;;;11.70;99.90;;;;;;21331777;27;20392;-69
2022/12/02 10:47:37;;;;;;;0.20;0.10;;;11.90;99.90;;;;;;21297417;27;20408;-70
2022/12/02 10:57:43;;;;;;;0.20;0.10;;;11.90;99.90;;;;;;21279263;27;20396;-71
2022/12/02 11:07:56;;;;;;;0.20;0.10;;;12.50;99.90;;;;;;21316034;27;20403;-70
2022/12/02 11:18:02;;;;;;;0.20;0.10;;;12.90;99.90;;;;;;21379495;27;20387;-68
2022/12/02 11:28:31;;;;;;;0.20;0.10;;;13.10;99.90;;;;;;21271801;27;20412;-69
2022/12/02 11:38:46;;;;;;;0.20;0.10;;;13.70;99.90;;;;;;21260712;27;20377;-69
2022/12/02 11:48:52;;;;;;;0.20;0.10;;;15.40;99.90;;;;;;21303083;27;20420;-70
2022/12/02 11:58:57;;;;;;;0.20;0.10;;;15.90;99.90;;;;;;21274503;27;20401;-69
2022/12/02 12:09:12;;;;;;;0.20;0.10;;;16.80;99.90;;;;;;21292973;27;20393;-69
2022/12/02 12:19:29;;;;;;;0.20;0.10;;;16.00;99.90;;;;;;21300970;27;20416;-67
2022/12/02 12:29:34;;;;;;;0.20;0.10;;;15.50;99.90;;;;;;21326805;27;20397;-67
2022/12/02 12:39:40;;;;;;;0.20;0.10;;;15.20;99.90;;;;;;21216145;28;20426;-69
2022/12/02 14:53:15;;;;;;;0.20;0.10;;;14.20;99.90;;;;;;21161276;27;20404;-69
2022/12/02 15:03:19;;;;;;;0.20;0.00;;;14.10;99.90;;;;;;21126707;28;20424;-67
2022/12/02 15:13:24;;;;;;;0.20;0.10;;;14.30;99.90;;;;;;21116614;28;20385;-69
2022/12/02 15:23:28;;;;;;;0.20;0.10;;;14.10;99.90;;;;;;21124060;28;20404;-70
2022/12/02 15:33:33;;;;;;;0.20;0.10;;;14.10;99.90;;;;;;21103654;28;20392;-70
2022/12/02 15:43:37;;;;;;;0.20;0.10;;;14.20;99.90;;;;;;21122855;28;20411;-71
2022/12/02 15:53:44;;;;;;;0.20;0.10;;;13.90;99.90;;;;;;21104907;28;20392;-69
2022/12/02 16:03:48;;;;;;;0.20;0.10;;;13.90;99.90;;;;;;21104800;28;20405;-70
2022/12/02 16:13:53;;;;;;;0.20;0.10;;;14.00;99.90;;;;;;21108580;28;20384;-67
2022/12/02 16:23:57;;;;;;;0.20;0.10;;;14.00;99.90;;;;;;21106957;28;20404;-68
2022/12/02 16:34:03;;;;;;;0.20;0.10;;;13.80;99.90;;;;;;21122730;28;20407;-69
2022/12/02 16:44:06;;;;;;;0.20;0.00;;;13.20;99.90;;;;;;21124697;28;20430;-69
2022/12/02 16:54:12;;;;;;;0.20;0.00;;;12.90;99.90;;;;;;21142534;28;20419;-70
2022/12/02 17:04:15;;;;;;;0.20;0.10;;;12.60;99.90;;;;;;21119736;28;20404;-70
2022/12/02 17:14:21;;;;;;;0.20;0.10;;;12.50;99.90;;;;;;21119128;28;20387;-71
2022/12/02 17:24:24;;;;;;;0.20;0.03;;;12.40;99.90;;;;;;21119841;28;20411;-71
2022/12/02 17:34:30;;;;;;;0.20;0.10;;;12.10;99.90;;;;;;21113484;28;20407;-70
2022/12/02 17:44:33;;;;;;;0.20;0.10;;;12.20;99.90;;;;;;21111501;28;20416;-71
2022/12/02 17:54:38;;;;;;;0.20;0.10;;;12.10;99.90;;;;;;21129853;28;20407;-73
2022/12/02 18:04:43;;;;;;;0.20;0.10;;;12.10;99.90;;;;;;21109774;28;20780;-71
2022/12/02 18:14:53;;;;;;;0.20;0.10;;;12.00;99.90;;;;;;21126443;28;20483;-72
2022/12/02 18:24:57;;;;;;;0.20;0.10;;;11.90;99.90;;;;;;21130179;28;20911;-71
2022/12/02 18:35:03;;;;;;;0.20;0.10;;;11.50;99.90;;;;;;21108405;28;20903;-71
2022/12/02 18:45:08;;;;;;;0.20;0.10;;;10.90;99.90;;;;;;21107075;28;20412;-72
2022/12/02 18:55:14;;;;;;;0.20;0.10;;;10.40;99.90;;;;;;21112700;28;20396;-71
2022/12/02 19:05:22;;;;;;;0.20;0.10;;;10.20;99.90;;;;;;21129445;28;20416;-72
2022/12/02 19:15:28;;;;;;;0.20;0.10;;;10.00;99.90;;;;;;21125382;28;20400;-71
2022/12/02 19:25:38;;;;;;;0.20;0.10;;;9.70;99.90;;;;;;21111545;28;20416;-70
2022/12/02 19:35:51;;;;;;;0.20;0.10;;;9.50;99.90;;;;;;21124785;28;20391;-70
2022/12/02 19:45:55;;;;;;;0.20;0.05;;;9.50;99.90;;;;;;21092060;28;20410;-70
2022/12/02 19:56:00;;;;;;;0.20;0.00;;;9.30;99.90;;;;;;21124324;28;20404;-69
2022/12/02 20:06:04;;;;;;;0.20;0.10;;;9.20;99.90;;;;;;21107337;28;20419;-70
2022/12/02 20:16:10;;;;;;;0.20;0.10;;;9.10;99.90;;;;;;21121774;28;20388;-70
2022/12/02 20:26:19;;;;;;;0.20;0.10;;;9.10;99.90;;;;;;21138844;28;20404;-71
2022/12/02 20:36:24;;;;;;;0.20;0.10;;;9.20;99.90;;;;;;21141276;28;20392;-69
2022/12/02 20:46:29;;;;;;;0.20;0.10;;;9.30;99.90;;;;;;21128876;28;20447;-69
2022/12/02 20:56:34;;;;;;;0.20;0.10;;;9.10;99.90;;;;;;21121946;28;20407;-70
2022/12/02 21:06:38;;;;;;;0.20;0.10;;;8.80;99.90;;;;;;21133665;28;20418;-70
2022/12/02 21:16:43;;;;;;;0.20;0.10;;;8.60;99.90;;;;;;21141481;28;20392;-70
2022/12/02 21:26:47;;;;;;;0.20;0.10;;;8.40;99.90;;;;;;21121173;28;20427;-69
2022/12/02 21:36:52;;;;;;;0.20;0.10;;;8.10;99.90;;;;;;21118769;28;20400;-70
2022/12/02 21:46:56;;;;;;;0.20;0.10;;;7.90;99.90;;;;;;21119270;28;20499;-69
2022/12/02 21:57:02;;;;;;;0.20;0.10;;;7.90;99.90;;;;;;21134856;28;20430;-69
2022/12/02 22:17:29;;;;;;;0.20;0.10;;;7.90;99.90;;;;;;21135072;28;20420;-71
2022/12/02 22:27:33;;;;;;;0.20;0.10;;;7.90;99.90;;;;;;21098013;28;20424;-70
2022/12/02 22:37:38;;;;;;;0.20;0.10;;;8.00;99.90;;;;;;21129206;28;20519;-69
2022/12/02 22:47:42;;;;;;;0.20;0.10;;;8.10;99.90;;;;;;21108968;28;20404;-70
2022/12/02 22:57:47;;;;;;;0.20;0.10;;;8.00;99.90;;;;;;21128993;28;20590;-70
2022/12/02 23:07:51;;;;;;;0.20;0.10;;;7.80;99.90;;;;;;21128412;28;20423;-69
2022/12/02 23:17:56;;;;;;;0.20;0.07;;;7.80;99.90;;;;;;21129855;28;20423;-69
2022/12/02 23:28:00;;;;;;;0.20;0.10;;;7.70;99.90;;;;;;21110412;28;20404;-68
2022/12/02 23:38:05;;;;;;;0.20;0.10;;;7.60;99.90;;;;;;21127161;28;20661;-68
2022/12/02 23:48:09;;;;;;;0.20;0.00;;;7.70;99.90;;;;;;21126071;28;20464;-70
2022/12/02 23:58:14;;;;;;;0.20;0.10;;;7.70;99.90;;;;;;21107409;28;20770;-70
